sensor_id;sensor_type;location;lat;lon;timestamp;pressure;altitude;pressure_sealevel;temperature;humidity
75192;BME280;63771;52.580;9.734;2022-09-27T00:02:22;98937.59;;;10.43;89.00
75192;BME280;63771;52.580;9.734;2022-09-27T00:04:50;98931.53;;;10.41;88.83
75192;BME280;63771;52.580;9.734;2022-09-27T00:07:15;98932.50;;;10.43;89.02
75192;BME280;63771;52.580;9.734;2022-09-27T00:09:41;98926.44;;;10.41;88.85
75192;BME280;63771;52.580;9.734;2022-09-27T00:12:06;98923.97;;;10.43;89.17
75192;BME280;63771;52.580;9.734;2022-09-27T00:14:31;98932.50;;;10.43;89.25
75192;BME280;63771;52.580;9.734;2022-09-27T00:16:57;98929.19;;;10.44;89.19
75192;BME280;63771;52.580;9.734;2022-09-27T00:19:22;98920.72;;;10.45;89.02
75192;BME280;63771;52.580;9.734;2022-09-27T00:21:48;98913.69;;;10.41;88.96
75192;BME280;63771;52.580;9.734;2022-09-27T00:24:20;98913.06;;;10.45;88.96
75192;BME280;63771;52.580;9.734;2022-09-27T00:26:46;98913.94;;;10.46;89.12
75192;BME280;63771;52.580;9.734;2022-09-27T00:29:13;98909.72;;;10.47;88.84
75192;BME280;63771;52.580;9.734;2022-09-27T00:31:39;98908.03;;;10.47;88.97
75192;BME280;63771;52.580;9.734;2022-09-27T00:34:05;98912.28;;;10.47;89.27
75192;BME280;63771;52.580;9.734;2022-09-27T00:36:32;98915.78;;;10.49;89.11
75192;BME280;63771;52.580;9.734;2022-09-27T00:38:57;98907.16;;;10.47;88.97
75192;BME280;63771;52.580;9.734;2022-09-27T00:41:32;98907.16;;;10.47;89.08
75192;BME280;63771;52.580;9.734;2022-09-27T00:46:47;98892.81;;;10.49;89.19
75192;BME280;63771;52.580;9.734;2022-09-27T00:49:26;98895.38;;;10.49;89.25
75192;BME280;63771;52.580;9.734;2022-09-27T00:52:00;98900.47;;;10.49;89.38
75192;BME280;63771;52.580;9.734;2022-09-27T00:54:28;98903.81;;;10.48;89.25
75192;BME280;63771;52.580;9.734;2022-09-27T00:56:56;98908.13;;;10.49;89.18
75192;BME280;63771;52.580;9.734;2022-09-27T00:59:26;98902.00;;;10.45;88.98
75192;BME280;63771;52.580;9.734;2022-09-27T01:01:53;98891.06;;;10.48;89.38
75192;BME280;63771;52.580;9.734;2022-09-27T01:04:21;98889.31;;;10.47;89.33
75192;BME280;63771;52.580;9.734;2022-09-27T01:06:49;98895.38;;;10.49;89.52
75192;BME280;63771;52.580;9.734;2022-09-27T01:09:14;98891.88;;;10.47;89.56
75192;BME280;63771;52.580;9.734;2022-09-27T01:11:47;98893.63;;;10.48;89.26
75192;BME280;63771;52.580;9.734;2022-09-27T01:16:50;98894.59;;;10.50;89.50
75192;BME280;63771;52.580;9.734;2022-09-27T01:22:14;98887.81;;;10.50;89.55
75192;BME280;63771;52.580;9.734;2022-09-27T01:25:04;98886.16;;;10.51;89.56
75192;BME280;63771;52.580;9.734;2022-09-27T01:27:51;98886.03;;;10.49;89.50
75192;BME280;63771;52.580;9.734;2022-09-27T01:30:20;98889.50;;;10.50;89.55
75192;BME280;63771;52.580;9.734;2022-09-27T01:36:22;98883.59;;;10.51;89.39
75192;BME280;63771;52.580;9.734;2022-09-27T01:39:44;98878.50;;;10.51;89.63
75192;BME280;63771;52.580;9.734;2022-09-27T01:42:34;98879.31;;;10.50;89.50
75192;BME280;63771;52.580;9.734;2022-09-27T01:45:06;98878.41;;;10.49;89.51
75192;BME280;63771;52.580;9.734;2022-09-27T01:47:45;98871.66;;;10.50;89.99
75192;BME280;63771;52.580;9.734;2022-09-27T01:50:16;98869.19;;;10.51;89.62
75192;BME280;63771;52.580;9.734;2022-09-27T01:53:00;98860.47;;;10.48;89.52
75192;BME280;63771;52.580;9.734;2022-09-27T01:55:30;98863.19;;;10.51;89.44
75192;BME280;63771;52.580;9.734;2022-09-27T01:58:05;98862.34;;;10.50;89.57
75192;BME280;63771;52.580;9.734;2022-09-27T02:00:34;98861.47;;;10.50;89.38
75192;BME280;63771;52.580;9.734;2022-09-27T02:03:09;98859.84;;;10.52;89.55
75192;BME280;63771;52.580;9.734;2022-09-27T02:06:00;98857.31;;;10.52;89.55
75192;BME280;63771;52.580;9.734;2022-09-27T02:08:31;98866.69;;;10.53;89.59
75192;BME280;63771;52.580;9.734;2022-09-27T02:11:03;98862.41;;;10.52;89.64
75192;BME280;63771;52.580;9.734;2022-09-27T02:13:52;98862.47;;;10.53;89.50
75192;BME280;63771;52.580;9.734;2022-09-27T02:16:32;98861.59;;;10.53;89.23
75192;BME280;63771;52.580;9.734;2022-09-27T02:19:11;98865.88;;;10.54;89.68
75192;BME280;63771;52.580;9.734;2022-09-27T02:21:43;98859.22;;;10.56;89.55
75192;BME280;63771;52.580;9.734;2022-09-27T02:24:21;98859.22;;;10.56;89.68
75192;BME280;63771;52.580;9.734;2022-09-27T02:26:56;98858.34;;;10.55;89.74
75192;BME280;63771;52.580;9.734;2022-09-27T02:29:48;98850.69;;;10.55;89.83
75192;BME280;63771;52.580;9.734;2022-09-27T02:32:16;98851.56;;;10.56;89.52
75192;BME280;63771;52.580;9.734;2022-09-27T02:34:41;98851.56;;;10.56;89.96
75192;BME280;63771;52.580;9.734;2022-09-27T02:37:08;98844.72;;;10.55;89.72
75192;BME280;63771;52.580;9.734;2022-09-27T02:39:33;98848.91;;;10.54;89.79
75192;BME280;63771;52.580;9.734;2022-09-27T02:42:00;98844.56;;;10.52;89.89
75192;BME280;63771;52.580;9.734;2022-09-27T02:44:26;98846.47;;;10.56;90.11
75192;BME280;63771;52.580;9.734;2022-09-27T02:47:21;98847.16;;;10.53;89.97
75192;BME280;63771;52.580;9.734;2022-09-27T02:50:04;98851.56;;;10.56;89.91
75192;BME280;63771;52.580;9.734;2022-09-27T02:52:55;98851.56;;;10.56;89.94
75192;BME280;63771;52.580;9.734;2022-09-27T02:58:40;98843.13;;;10.57;89.89
75192;BME280;63771;52.580;9.734;2022-09-27T03:04:14;98840.63;;;10.58;90.00
75192;BME280;63771;52.580;9.734;2022-09-27T03:06:44;98838.19;;;10.60;90.23
75192;BME280;63771;52.580;9.734;2022-09-27T03:09:21;98841.50;;;10.59;89.76
75192;BME280;63771;52.580;9.734;2022-09-27T03:11:46;98841.44;;;10.57;90.19
75192;BME280;63771;52.580;9.734;2022-09-27T03:14:13;98839.75;;;10.58;90.27
75192;BME280;63771;52.580;9.734;2022-09-27T03:16:38;98846.59;;;10.59;90.15
75192;BME280;63771;52.580;9.734;2022-09-27T03:19:05;98838.97;;;10.59;90.24
75192;BME280;63771;52.580;9.734;2022-09-27T03:21:31;98843.28;;;10.60;90.11
75192;BME280;63771;52.580;9.734;2022-09-27T03:23:56;98837.38;;;10.61;90.30
75192;BME280;63771;52.580;9.734;2022-09-27T03:26:21;98839.94;;;10.61;90.13
75192;BME280;63771;52.580;9.734;2022-09-27T03:28:47;98840.81;;;10.61;90.20
75192;BME280;63771;52.580;9.734;2022-09-27T03:31:15;98844.22;;;10.62;90.20
75192;BME280;63771;52.580;9.734;2022-09-27T03:33:40;98842.53;;;10.62;90.01
75192;BME280;63771;52.580;9.734;2022-09-27T03:36:06;98839.94;;;10.61;89.89
75192;BME280;63771;52.580;9.734;2022-09-27T03:38:31;98847.66;;;10.62;89.86
75192;BME280;63771;52.580;9.734;2022-09-27T03:40:57;98835.69;;;10.61;89.87
75192;BME280;63771;52.580;9.734;2022-09-27T03:43:23;98835.63;;;10.60;90.02
75192;BME280;63771;52.580;9.734;2022-09-27T03:45:48;98838.19;;;10.60;90.16
75192;BME280;63771;52.580;9.734;2022-09-27T03:48:14;98829.56;;;10.58;90.13
75192;BME280;63771;52.580;9.734;2022-09-27T03:50:39;98835.47;;;10.57;90.01
75192;BME280;63771;52.580;9.734;2022-09-27T03:53:04;98838.19;;;10.60;90.08
75192;BME280;63771;52.580;9.734;2022-09-27T03:55:30;98828.50;;;10.54;90.13
75192;BME280;63771;52.580;9.734;2022-09-27T03:57:55;98829.56;;;10.58;90.36
75192;BME280;63771;52.580;9.734;2022-09-27T04:00:21;98827.56;;;10.52;90.07
75192;BME280;63771;52.580;9.734;2022-09-27T04:02:46;98834.59;;;10.56;90.34
75192;BME280;63771;52.580;9.734;2022-09-27T04:05:11;98829.44;;;10.55;89.80
75192;BME280;63771;52.580;9.734;2022-09-27T04:07:37;98837.84;;;10.54;89.80
75192;BME280;63771;52.580;9.734;2022-09-27T04:10:03;98833.47;;;10.51;89.88
75192;BME280;63771;52.580;9.734;2022-09-27T04:12:28;98841.19;;;10.53;89.24
75192;BME280;63771;52.580;9.734;2022-09-27T04:14:54;98827.97;;;10.43;88.85
75192;BME280;63771;52.580;9.734;2022-09-27T04:17:19;98828.63;;;10.39;89.12
75192;BME280;63771;52.580;9.734;2022-09-27T04:19:44;98849.97;;;10.41;88.75
75192;BME280;63771;52.580;9.734;2022-09-27T04:22:10;98843.75;;;10.36;89.19
75192;BME280;63771;52.580;9.734;2022-09-27T04:24:35;98841.03;;;10.33;89.35
75192;BME280;63771;52.580;9.734;2022-09-27T04:27:01;98844.25;;;10.29;89.28
75192;BME280;63771;52.580;9.734;2022-09-27T04:29:26;98838.91;;;10.25;89.28
75192;BME280;63771;52.580;9.734;2022-09-27T04:31:52;98842.31;;;10.25;89.75
75192;BME280;63771;52.580;9.734;2022-09-27T04:34:17;98847.44;;;10.25;89.68
75192;BME280;63771;52.580;9.734;2022-09-27T04:37:02;98841.31;;;10.23;89.99
75192;BME280;63771;52.580;9.734;2022-09-27T04:39:28;98846.41;;;10.23;90.10
75192;BME280;63771;52.580;9.734;2022-09-27T04:41:53;98841.31;;;10.23;90.19
75192;BME280;63771;52.580;9.734;2022-09-27T04:44:18;98853.47;;;10.27;90.42
75192;BME280;63771;52.580;9.734;2022-09-27T04:46:44;98859.59;;;10.31;89.96
75192;BME280;63771;52.580;9.734;2022-09-27T04:49:09;98854.59;;;10.32;89.56
75192;BME280;63771;52.580;9.734;2022-09-27T04:51:34;98859.78;;;10.34;88.86
75192;BME280;63771;52.580;9.734;2022-09-27T04:54:00;98862.22;;;10.32;89.18
75192;BME280;63771;52.580;9.734;2022-09-27T04:56:25;98864.63;;;10.29;89.06
75192;BME280;63771;52.580;9.734;2022-09-27T04:58:51;98867.75;;;10.24;89.49
75192;BME280;63771;52.580;9.734;2022-09-27T05:01:17;98865.84;;;10.21;89.80
75192;BME280;63771;52.580;9.734;2022-09-27T05:03:43;98866.47;;;10.17;89.83
75192;BME280;63771;52.580;9.734;2022-09-27T05:06:09;98869.22;;;10.20;89.74
75192;BME280;63771;52.580;9.734;2022-09-27T05:08:34;98874.22;;;10.18;89.71
75192;BME280;63771;52.580;9.734;2022-09-27T05:11:00;98874.94;;;10.16;89.84
75192;BME280;63771;52.580;9.734;2022-09-27T05:13:25;98880.03;;;10.16;89.64
75192;BME280;63771;52.580;9.734;2022-09-27T05:15:50;98878.09;;;10.12;89.74
75192;BME280;63771;52.580;9.734;2022-09-27T05:18:16;98876.34;;;10.11;89.76
75192;BME280;63771;52.580;9.734;2022-09-27T05:20:43;98888.22;;;10.10;89.86
75192;BME280;63771;52.580;9.734;2022-09-27T05:23:09;98884.72;;;10.08;89.83
75192;BME280;63771;52.580;9.734;2022-09-27T05:25:34;98896.41;;;10.05;89.82
75192;BME280;63771;52.580;9.734;2022-09-27T05:27:59;98888.53;;;10.00;90.14
75192;BME280;63771;52.580;9.734;2022-09-27T05:30:25;98901.97;;;9.98;90.24
75192;BME280;63771;52.580;9.734;2022-09-27T05:32:51;98901.88;;;9.96;90.11
75192;BME280;63771;52.580;9.734;2022-09-27T05:35:18;98897.66;;;9.97;90.41
75192;BME280;63771;52.580;9.734;2022-09-27T05:37:55;98901.97;;;9.98;90.29
75192;BME280;63771;52.580;9.734;2022-09-27T05:40:21;98907.16;;;9.99;90.28
75192;BME280;63771;52.580;9.734;2022-09-27T05:42:53;98902.75;;;9.97;90.30
75192;BME280;63771;52.580;9.734;2022-09-27T05:45:19;98903.41;;;9.92;90.73
75192;BME280;63771;52.580;9.734;2022-09-27T05:47:55;98902.94;;;10.00;90.41
75192;BME280;63771;52.580;9.734;2022-09-27T05:50:22;98904.69;;;10.01;90.46
75192;BME280;63771;52.580;9.734;2022-09-27T05:52:48;98905.66;;;10.03;90.45
75192;BME280;63771;52.580;9.734;2022-09-27T05:55:13;98904.84;;;10.04;90.53
75192;BME280;63771;52.580;9.734;2022-09-27T05:57:38;98907.56;;;10.07;90.56
75192;BME280;63771;52.580;9.734;2022-09-27T06:00:04;98905.97;;;10.09;90.17
75192;BME280;63771;52.580;9.734;2022-09-27T06:02:33;98917.91;;;10.10;90.20
75192;BME280;63771;52.580;9.734;2022-09-27T06:04:59;98913.63;;;10.09;90.22
75192;BME280;63771;52.580;9.734;2022-09-27T06:07:25;98915.56;;;10.13;90.08
75192;BME280;63771;52.580;9.734;2022-09-27T06:09:50;98904.56;;;10.14;90.16
75192;BME280;63771;52.580;9.734;2022-09-27T06:12:15;98913.78;;;10.12;90.16
75192;BME280;63771;52.580;9.734;2022-09-27T06:14:41;98906.06;;;10.10;90.24
75192;BME280;63771;52.580;9.734;2022-09-27T06:17:06;98917.44;;;10.17;90.22
75192;BME280;63771;52.580;9.734;2022-09-27T06:19:31;98916.91;;;10.23;89.32
75192;BME280;63771;52.580;9.734;2022-09-27T06:21:57;98916.75;;;10.19;89.74
75192;BME280;63771;52.580;9.734;2022-09-27T06:24:22;98923.41;;;10.17;89.73
75192;BME280;63771;52.580;9.734;2022-09-27T06:26:47;98919.06;;;10.15;89.84
75192;BME280;63771;52.580;9.734;2022-09-27T06:29:12;98925.88;;;10.16;89.89
75192;BME280;63771;52.580;9.734;2022-09-27T06:31:38;98931.25;;;10.20;89.24
75192;BME280;63771;52.580;9.734;2022-09-27T06:34:03;98926.88;;;10.18;89.88
75192;BME280;63771;52.580;9.734;2022-09-27T06:36:29;98926.06;;;10.19;89.11
75192;BME280;63771;52.580;9.734;2022-09-27T06:38:54;98926.06;;;10.19;89.28
75192;BME280;63771;52.580;9.734;2022-09-27T06:41:19;98938.00;;;10.20;88.93
75192;BME280;63771;52.580;9.734;2022-09-27T06:43:47;98933.59;;;10.17;88.90
75192;BME280;63771;52.580;9.734;2022-09-27T06:46:12;98930.28;;;10.18;88.94
75192;BME280;63771;52.580;9.734;2022-09-27T06:48:37;98938.81;;;10.19;88.54
75192;BME280;63771;52.580;9.734;2022-09-27T06:51:03;98943.91;;;10.19;88.73
75192;BME280;63771;52.580;9.734;2022-09-27T06:53:29;98945.47;;;10.17;88.83
75192;BME280;63771;52.580;9.734;2022-09-27T06:55:58;98945.66;;;10.20;88.99
75192;BME280;63771;52.580;9.734;2022-09-27T06:58:26;98951.63;;;10.20;88.94
75192;BME280;63771;52.580;9.734;2022-09-27T07:01:11;98958.69;;;10.25;88.98
75192;BME280;63771;52.580;9.734;2022-09-27T07:03:36;98955.84;;;10.20;89.41
75192;BME280;63771;52.580;9.734;2022-09-27T07:06:06;98960.38;;;10.24;89.20
75192;BME280;63771;52.580;9.734;2022-09-27T07:08:32;98956.72;;;10.20;89.07
75192;BME280;63771;52.580;9.734;2022-09-27T07:11:01;98960.16;;;10.21;89.11
75192;BME280;63771;52.580;9.734;2022-09-27T07:13:28;98970.34;;;10.21;89.08
75192;BME280;63771;52.580;9.734;2022-09-27T07:15:55;98967.34;;;10.28;88.12
75192;BME280;63771;52.580;9.734;2022-09-27T07:18:20;98966.47;;;10.28;88.18
75192;BME280;63771;52.580;9.734;2022-09-27T07:20:46;98971.69;;;10.29;88.27
75192;BME280;63771;52.580;9.734;2022-09-27T07:23:12;98981.63;;;10.25;88.25
75192;BME280;63771;52.580;9.734;2022-09-27T07:25:38;98980.53;;;10.21;88.93
75192;BME280;63771;52.580;9.734;2022-09-27T07:28:08;98971.06;;;10.18;88.63
75192;BME280;63771;52.580;9.734;2022-09-27T07:30:35;98978.78;;;10.20;88.75
75192;BME280;63771;52.580;9.734;2022-09-27T07:33:02;98984.16;;;10.25;88.54
75192;BME280;63771;52.580;9.734;2022-09-27T07:35:29;98982.28;;;10.22;88.90
75192;BME280;63771;52.580;9.734;2022-09-27T07:37:55;98992.16;;;10.31;88.21
75192;BME280;63771;52.580;9.734;2022-09-27T07:40:21;99000.66;;;10.31;88.35
75192;BME280;63771;52.580;9.734;2022-09-27T07:42:47;99000.75;;;10.33;88.14
75192;BME280;63771;52.580;9.734;2022-09-27T07:45:18;99000.84;;;10.34;88.40
75192;BME280;63771;52.580;9.734;2022-09-27T07:47:43;99000.06;;;10.35;87.84
75192;BME280;63771;52.580;9.734;2022-09-27T07:50:09;99008.50;;;10.34;87.83
75192;BME280;63771;52.580;9.734;2022-09-27T07:52:42;99003.03;;;10.28;87.72
75192;BME280;63771;52.580;9.734;2022-09-27T07:55:12;99015.00;;;10.29;88.27
75192;BME280;63771;52.580;9.734;2022-09-27T07:57:38;99016.75;;;10.30;87.82
75192;BME280;63771;52.580;9.734;2022-09-27T08:00:06;99015.16;;;10.32;87.98
75192;BME280;63771;52.580;9.734;2022-09-27T08:02:32;99013.41;;;10.31;87.57
75192;BME280;63771;52.580;9.734;2022-09-27T08:05:01;99025.47;;;10.34;87.59
75192;BME280;63771;52.580;9.734;2022-09-27T08:07:27;99022.91;;;10.34;87.30
75192;BME280;63771;52.580;9.734;2022-09-27T08:09:53;99033.81;;;10.31;87.94
75192;BME280;63771;52.580;9.734;2022-09-27T08:12:19;99028.88;;;10.34;87.53
75192;BME280;63771;52.580;9.734;2022-09-27T08:14:47;99033.81;;;10.31;87.49
75192;BME280;63771;52.580;9.734;2022-09-27T08:17:13;99036.28;;;10.30;87.77
75192;BME280;63771;52.580;9.734;2022-09-27T08:19:39;99043.13;;;10.31;87.56
75192;BME280;63771;52.580;9.734;2022-09-27T08:22:06;99040.31;;;10.26;87.88
75192;BME280;63771;52.580;9.734;2022-09-27T08:24:31;99051.31;;;10.25;88.11
75192;BME280;63771;52.580;9.734;2022-09-27T08:26:57;99054.19;;;10.31;87.19
75192;BME280;63771;52.580;9.734;2022-09-27T08:29:25;99060.91;;;10.29;86.98
75192;BME280;63771;52.580;9.734;2022-09-27T08:31:51;99058.09;;;10.25;86.73
75192;BME280;63771;52.580;9.734;2022-09-27T08:34:18;99058.97;;;10.25;87.24
75192;BME280;63771;52.580;9.734;2022-09-27T08:36:43;99061.03;;;10.17;87.44
75192;BME280;63771;52.580;9.734;2022-09-27T08:39:09;99074.03;;;10.22;87.35
75192;BME280;63771;52.580;9.734;2022-09-27T08:41:52;99066.31;;;10.20;87.27
75192;BME280;63771;52.580;9.734;2022-09-27T08:44:42;99069.59;;;10.18;87.14
75192;BME280;63771;52.580;9.734;2022-09-27T08:47:24;99069.72;;;10.21;87.06
75192;BME280;63771;52.580;9.734;2022-09-27T08:50:24;99083.44;;;10.23;86.96
75192;BME280;63771;52.580;9.734;2022-09-27T08:52:57;99069.47;;;10.16;86.87
75192;BME280;63771;52.580;9.734;2022-09-27T08:55:35;99078.78;;;10.16;87.36
75192;BME280;63771;52.580;9.734;2022-09-27T08:58:05;99073.53;;;10.13;87.45
75192;BME280;63771;52.580;9.734;2022-09-27T09:00:35;99095.44;;;10.24;87.37
75192;BME280;63771;52.580;9.734;2022-09-27T09:03:01;99080.41;;;10.29;87.55
75192;BME280;63771;52.580;9.734;2022-09-27T09:05:28;99084.88;;;10.33;86.89
75192;BME280;63771;52.580;9.734;2022-09-27T09:22:00;99088.47;;;10.98;86.94
75192;BME280;63771;52.580;9.734;2022-09-27T09:27:25;99097.03;;;11.15;85.50
75192;BME280;63771;52.580;9.734;2022-09-27T09:37:50;99083.56;;;11.34;84.62
75192;BME280;63771;52.580;9.734;2022-09-27T09:43:24;99086.50;;;11.58;83.48
75192;BME280;63771;52.580;9.734;2022-09-27T09:46:16;99083.53;;;11.67;85.30
75192;BME280;63771;52.580;9.734;2022-09-27T09:49:27;99088.16;;;11.74;83.36
75192;BME280;63771;52.580;9.734;2022-09-27T09:51:58;99095.34;;;11.81;81.67
75192;BME280;63771;52.580;9.734;2022-09-27T09:54:34;99086.31;;;11.71;81.90
75192;BME280;63771;52.580;9.734;2022-09-27T09:59:46;99084.72;;;11.73;81.68
75192;BME280;63771;52.580;9.734;2022-09-27T10:02:23;99084.41;;;11.67;81.82
75192;BME280;63771;52.580;9.734;2022-09-27T10:04:53;99088.66;;;11.67;82.15
75192;BME280;63771;52.580;9.734;2022-09-27T10:07:20;99083.53;;;11.67;81.33
75192;BME280;63771;52.580;9.734;2022-09-27T10:09:49;99088.66;;;11.67;81.65
75192;BME280;63771;52.580;9.734;2022-09-27T10:12:14;99082.66;;;11.66;81.16
75192;BME280;63771;52.580;9.734;2022-09-27T10:14:41;99083.53;;;11.67;79.32
75192;BME280;63771;52.580;9.734;2022-09-27T10:17:11;99087.03;;;11.69;79.44
75192;BME280;63771;52.580;9.734;2022-09-27T10:19:39;99094.06;;;11.73;79.84
75192;BME280;63771;52.580;9.734;2022-09-27T10:22:22;99085.59;;;11.74;80.12
75192;BME280;63771;52.580;9.734;2022-09-27T10:24:55;99094.16;;;11.91;80.57
75192;BME280;63771;52.580;9.734;2022-09-27T10:27:22;99086.78;;;11.97;77.48
75192;BME280;63771;52.580;9.734;2022-09-27T10:29:55;99103.50;;;11.90;76.57
75192;BME280;63771;52.580;9.734;2022-09-27T10:32:33;99100.34;;;11.80;78.25
75192;BME280;63771;52.580;9.734;2022-09-27T10:35:20;99099.16;;;11.73;79.23
75192;BME280;63771;52.580;9.734;2022-09-27T10:37:46;99098.06;;;11.68;79.58
75192;BME280;63771;52.580;9.734;2022-09-27T10:40:30;99111.81;;;11.70;80.50
75192;BME280;63771;52.580;9.734;2022-09-27T10:42:55;99110.38;;;11.75;79.05
75192;BME280;63771;52.580;9.734;2022-09-27T10:47:51;99110.81;;;11.68;79.50
75192;BME280;63771;52.580;9.734;2022-09-27T10:50:20;99118.50;;;11.68;78.69
75192;BME280;63771;52.580;9.734;2022-09-27T10:53:00;99112.91;;;11.75;77.95
75192;BME280;63771;52.580;9.734;2022-09-27T10:55:28;99115.47;;;11.75;77.74
75192;BME280;63771;52.580;9.734;2022-09-27T10:57:56;99116.41;;;11.77;78.43
75192;BME280;63771;52.580;9.734;2022-09-27T11:00:25;99115.00;;;11.82;78.50
75192;BME280;63771;52.580;9.734;2022-09-27T11:02:53;99115.47;;;11.91;78.04
75192;BME280;63771;52.580;9.734;2022-09-27T11:07:58;99122.81;;;12.01;76.51
75192;BME280;63771;52.580;9.734;2022-09-27T11:10:25;99117.69;;;12.01;75.37
75192;BME280;63771;52.580;9.734;2022-09-27T11:13:17;99124.69;;;12.06;75.62
75192;BME280;63771;52.580;9.734;2022-09-27T11:18:19;99123.34;;;12.12;73.93
75192;BME280;63771;52.580;9.734;2022-09-27T11:20:56;99123.09;;;12.08;73.81
75192;BME280;63771;52.580;9.734;2022-09-27T11:23:42;99121.16;;;12.20;72.63
75192;BME280;63771;52.580;9.734;2022-09-27T11:29:09;99112.81;;;12.24;73.17
75192;BME280;63771;52.580;9.734;2022-09-27T11:38:25;99115.69;;;12.30;72.46
75192;BME280;63771;52.580;9.734;2022-09-27T11:47:27;99127.81;;;12.34;71.95
75192;BME280;63771;52.580;9.734;2022-09-27T11:55:26;99130.16;;;12.30;72.50
75192;BME280;63771;52.580;9.734;2022-09-27T12:06:10;99133.97;;;12.38;74.30
75192;BME280;63771;52.580;9.734;2022-09-27T12:11:45;99136.53;;;12.38;74.01
75192;BME280;63771;52.580;9.734;2022-09-27T12:15:28;99140.69;;;12.36;74.97
75192;BME280;63771;52.580;9.734;2022-09-27T12:17:25;99147.25;;;12.31;74.98
75192;BME280;63771;52.580;9.734;2022-09-27T12:19:54;99147.97;;;12.28;75.43
75192;BME280;63771;52.580;9.734;2022-09-27T12:22:28;99142.88;;;12.28;74.41
75192;BME280;63771;52.580;9.734;2022-09-27T12:24:54;99148.84;;;12.28;74.54
75192;BME280;63771;52.580;9.734;2022-09-27T12:27:39;99151.47;;;12.30;73.17
75192;BME280;63771;52.580;9.734;2022-09-27T12:30:11;99147.47;;;12.35;72.17
75192;BME280;63771;52.580;9.734;2022-09-27T12:32:52;99154.19;;;12.33;72.07
75192;BME280;63771;52.580;9.734;2022-09-27T12:35:24;99153.09;;;12.28;72.78
75192;BME280;63771;52.580;9.734;2022-09-27T12:37:54;99164.13;;;12.27;70.95
75192;BME280;63771;52.580;9.734;2022-09-27T12:42:59;99162.84;;;12.19;75.00
75192;BME280;63771;52.580;9.734;2022-09-27T12:51:20;99169.53;;;11.99;78.59
75192;BME280;63771;52.580;9.734;2022-09-27T12:59:37;99180.22;;;11.75;80.50
75192;BME280;63771;52.580;9.734;2022-09-27T13:02:34;99179.00;;;11.69;81.53
75192;BME280;63771;52.580;9.734;2022-09-27T13:08:28;99182.22;;;11.65;82.08
75192;BME280;63771;52.580;9.734;2022-09-27T13:13:40;99175.00;;;11.58;84.04
75192;BME280;63771;52.580;9.734;2022-09-27T13:16:06;99180.44;;;11.64;82.40
75192;BME280;63771;52.580;9.734;2022-09-27T13:21:02;99176.75;;;11.59;82.05
75192;BME280;63771;52.580;9.734;2022-09-27T13:28:33;99180.72;;;11.37;82.23
75192;BME280;63771;52.580;9.734;2022-09-27T13:34:40;99194.59;;;11.26;82.71
75192;BME280;63771;52.580;9.734;2022-09-27T13:40:21;99195.06;;;11.19;83.37
75192;BME280;63771;52.580;9.734;2022-09-27T13:43:02;99192.44;;;11.17;83.61
75192;BME280;63771;52.580;9.734;2022-09-27T13:45:54;99199.19;;;11.17;83.45
75192;BME280;63771;52.580;9.734;2022-09-27T13:51:05;99198.25;;;11.15;83.23
75192;BME280;63771;52.580;9.734;2022-09-27T13:53:40;99200.81;;;11.15;83.00
75192;BME280;63771;52.580;9.734;2022-09-27T13:59:24;99207.31;;;11.10;82.55
75192;BME280;63771;52.580;9.734;2022-09-27T14:02:01;99199.66;;;11.10;83.01
75192;BME280;63771;52.580;9.734;2022-09-27T14:04:40;99204.78;;;11.10;82.92
75192;BME280;63771;52.580;9.734;2022-09-27T14:07:12;99199.75;;;11.11;83.16
75192;BME280;63771;52.580;9.734;2022-09-27T14:09:40;99195.38;;;11.09;83.10
75192;BME280;63771;52.580;9.734;2022-09-27T14:12:16;99207.59;;;11.14;83.09
75192;BME280;63771;52.580;9.734;2022-09-27T14:14:43;99205.09;;;11.16;82.79
75192;BME280;63771;52.580;9.734;2022-09-27T14:17:19;99203.34;;;11.15;83.53
75192;BME280;63771;52.580;9.734;2022-09-27T14:19:45;99207.59;;;11.14;82.76
75192;BME280;63771;52.580;9.734;2022-09-27T14:22:17;99216.91;;;11.14;81.38
75192;BME280;63771;52.580;9.734;2022-09-27T14:24:50;99216.75;;;11.11;81.73
75192;BME280;63771;52.580;9.734;2022-09-27T14:27:24;99226.00;;;11.09;82.39
75192;BME280;63771;52.580;9.734;2022-09-27T14:29:58;99224.69;;;11.01;82.81
75192;BME280;63771;52.580;9.734;2022-09-27T14:32:33;99231.38;;;10.98;83.39
75192;BME280;63771;52.580;9.734;2022-09-27T14:38:05;99232.97;;;10.96;83.56
75192;BME280;63771;52.580;9.734;2022-09-27T14:40:39;99234.41;;;10.91;84.05
75192;BME280;63771;52.580;9.734;2022-09-27T14:43:15;99240.72;;;10.83;83.63
75192;BME280;63771;52.580;9.734;2022-09-27T14:45:43;99238.63;;;10.76;82.35
75192;BME280;63771;52.580;9.734;2022-09-27T14:48:27;99244.88;;;10.66;80.31
75192;BME280;63771;52.580;9.734;2022-09-27T14:50:59;99259.22;;;10.50;82.07
75192;BME280;63771;52.580;9.734;2022-09-27T14:53:31;99242.81;;;10.31;82.11
75192;BME280;63771;52.580;9.734;2022-09-27T14:55:57;99250.91;;;10.24;83.32
75192;BME280;63771;52.580;9.734;2022-09-27T14:58:23;99245.59;;;10.21;83.40
75192;BME280;63771;52.580;9.734;2022-09-27T15:00:52;99249.88;;;10.22;83.25
75192;BME280;63771;52.580;9.734;2022-09-27T15:03:27;99249.44;;;10.14;83.74
75192;BME280;63771;52.580;9.734;2022-09-27T15:05:54;99246.63;;;10.10;84.03
75192;BME280;63771;52.580;9.734;2022-09-27T15:08:22;99256.81;;;10.10;84.60
75192;BME280;63771;52.580;9.734;2022-09-27T15:10:49;99253.19;;;10.06;85.11
75192;BME280;63771;52.580;9.734;2022-09-27T15:13:18;99249.78;;;10.06;85.55
75192;BME280;63771;52.580;9.734;2022-09-27T15:15:45;99249.97;;;10.09;86.26
75192;BME280;63771;52.580;9.734;2022-09-27T15:18:38;99255.44;;;10.15;86.47
75192;BME280;63771;52.580;9.734;2022-09-27T15:21:06;99246.38;;;10.20;86.60
75192;BME280;63771;52.580;9.734;2022-09-27T15:23:40;99251.47;;;10.20;86.20
75192;BME280;63771;52.580;9.734;2022-09-27T15:26:17;99250.69;;;10.21;86.94
75192;BME280;63771;52.580;9.734;2022-09-27T15:28:50;99246.53;;;10.23;86.47
75192;BME280;63771;52.580;9.734;2022-09-27T15:31:29;99244.16;;;10.25;86.08